sensor_id;sensor_type;location;lat;lon;timestamp;P1;durP1;ratioP1;P2;durP2;ratioP2
72194;SDS011;60095;50.180;9.032;2023-06-10T00:00:02;5.47;;;4.97;;
72194;SDS011;60095;50.180;9.032;2023-06-10T00:02:30;5.85;;;5.35;;
72194;SDS011;60095;50.180;9.032;2023-06-10T00:04:57;5.40;;;4.35;;
72194;SDS011;60095;50.180;9.032;2023-06-10T00:07:23;5.95;;;5.47;;
72194;SDS011;60095;50.180;9.032;2023-06-10T00:09:50;5.38;;;4.93;;
72194;SDS011;60095;50.180;9.032;2023-06-10T00:12:17;5.35;;;4.63;;
72194;SDS011;60095;50.180;9.032;2023-06-10T00:14:46;5.95;;;4.90;;
72194;SDS011;60095;50.180;9.032;2023-06-10T00:17:15;5.68;;;5.18;;
72194;SDS011;60095;50.180;9.032;2023-06-10T00:19:41;6.13;;;5.60;;
72194;SDS011;60095;50.180;9.032;2023-06-10T00:22:08;4.93;;;4.53;;
72194;SDS011;60095;50.180;9.032;2023-06-10T00:24:35;6.35;;;5.68;;
72194;SDS011;60095;50.180;9.032;2023-06-10T00:27:02;4.10;;;3.80;;
72194;SDS011;60095;50.180;9.032;2023-06-10T00:29:30;7.05;;;5.25;;
72194;SDS011;60095;50.180;9.032;2023-06-10T00:31:58;4.88;;;4.47;;
72194;SDS011;60095;50.180;9.032;2023-06-10T00:34:24;4.35;;;4.05;;
72194;SDS011;60095;50.180;9.032;2023-06-10T00:36:51;5.85;;;5.25;;
72194;SDS011;60095;50.180;9.032;2023-06-10T00:39:17;4.97;;;4.57;;
72194;SDS011;60095;50.180;9.032;2023-06-10T00:41:44;5.80;;;5.30;;
72194;SDS011;60095;50.180;9.032;2023-06-10T00:44:10;5.22;;;4.53;;
72194;SDS011;60095;50.180;9.032;2023-06-10T00:46:37;5.28;;;4.88;;
72194;SDS011;60095;50.180;9.032;2023-06-10T00:49:05;6.63;;;5.13;;
72194;SDS011;60095;50.180;9.032;2023-06-10T00:51:33;5.32;;;4.95;;
72194;SDS011;60095;50.180;9.032;2023-06-10T00:54:01;6.03;;;4.95;;
72194;SDS011;60095;50.180;9.032;2023-06-10T00:56:28;7.30;;;5.45;;
72194;SDS011;60095;50.180;9.032;2023-06-10T00:58:55;6.40;;;5.65;;
72194;SDS011;60095;50.180;9.032;2023-06-10T01:01:21;5.60;;;5.10;;
72194;SDS011;60095;50.180;9.032;2023-06-10T01:03:48;4.35;;;3.97;;
72194;SDS011;60095;50.180;9.032;2023-06-10T01:06:18;7.32;;;6.70;;
72194;SDS011;60095;50.180;9.032;2023-06-10T01:11:17;4.70;;;4.30;;
72194;SDS011;60095;50.180;9.032;2023-06-10T01:13:46;7.28;;;6.57;;
72194;SDS011;60095;50.180;9.032;2023-06-10T01:16:14;7.35;;;5.75;;
72194;SDS011;60095;50.180;9.032;2023-06-10T01:18:40;5.35;;;4.88;;
72194;SDS011;60095;50.180;9.032;2023-06-10T01:21:07;5.80;;;5.30;;
72194;SDS011;60095;50.180;9.032;2023-06-10T01:23:35;6.43;;;5.82;;
72194;SDS011;60095;50.180;9.032;2023-06-10T01:26:03;6.55;;;5.35;;
72194;SDS011;60095;50.180;9.032;2023-06-10T01:28:33;9.98;;;5.35;;
72194;SDS011;60095;50.180;9.032;2023-06-10T01:31:05;6.88;;;5.90;;
72194;SDS011;60095;50.180;9.032;2023-06-10T01:33:34;6.20;;;5.38;;
72194;SDS011;60095;50.180;9.032;2023-06-10T01:36:03;7.80;;;7.03;;
72194;SDS011;60095;50.180;9.032;2023-06-10T01:38:30;6.65;;;6.18;;
72194;SDS011;60095;50.180;9.032;2023-06-10T01:41:00;6.38;;;5.88;;
72194;SDS011;60095;50.180;9.032;2023-06-10T01:43:27;7.30;;;6.70;;
72194;SDS011;60095;50.180;9.032;2023-06-10T01:45:53;6.50;;;5.90;;
72194;SDS011;60095;50.180;9.032;2023-06-10T01:48:20;5.28;;;4.88;;
72194;SDS011;60095;50.180;9.032;2023-06-10T01:50:46;6.45;;;5.72;;
72194;SDS011;60095;50.180;9.032;2023-06-10T01:53:13;8.63;;;5.10;;
72194;SDS011;60095;50.180;9.032;2023-06-10T01:55:39;6.38;;;5.57;;
72194;SDS011;60095;50.180;9.032;2023-06-10T01:58:08;5.95;;;5.45;;
72194;SDS011;60095;50.180;9.032;2023-06-10T02:00:34;7.10;;;6.25;;
72194;SDS011;60095;50.180;9.032;2023-06-10T02:03:01;7.22;;;6.55;;
72194;SDS011;60095;50.180;9.032;2023-06-10T02:05:27;6.53;;;6.03;;
72194;SDS011;60095;50.180;9.032;2023-06-10T02:07:54;9.95;;;5.57;;
72194;SDS011;60095;50.180;9.032;2023-06-10T02:10:20;4.90;;;4.22;;
72194;SDS011;60095;50.180;9.032;2023-06-10T02:12:47;6.80;;;6.10;;
72194;SDS011;60095;50.180;9.032;2023-06-10T02:15:15;7.78;;;5.10;;
72194;SDS011;60095;50.180;9.032;2023-06-10T02:17:42;4.85;;;4.40;;
72194;SDS011;60095;50.180;9.032;2023-06-10T02:20:10;5.72;;;4.97;;
72194;SDS011;60095;50.180;9.032;2023-06-10T02:22:37;7.20;;;5.07;;
72194;SDS011;60095;50.180;9.032;2023-06-10T02:25:04;9.93;;;5.15;;
72194;SDS011;60095;50.180;9.032;2023-06-10T02:27:31;5.18;;;4.78;;
72194;SDS011;60095;50.180;9.032;2023-06-10T02:29:57;4.88;;;4.47;;
72194;SDS011;60095;50.180;9.032;2023-06-10T02:32:25;5.97;;;4.65;;
72194;SDS011;60095;50.180;9.032;2023-06-10T02:34:53;5.05;;;3.47;;
72194;SDS011;60095;50.180;9.032;2023-06-10T02:37:20;7.18;;;4.00;;
72194;SDS011;60095;50.180;9.032;2023-06-10T02:39:47;7.03;;;6.32;;
72194;SDS011;60095;50.180;9.032;2023-06-10T02:42:13;6.78;;;6.13;;
72194;SDS011;60095;50.180;9.032;2023-06-10T02:44:40;4.32;;;3.92;;
72194;SDS011;60095;50.180;9.032;2023-06-10T02:47:06;4.63;;;4.22;;
72194;SDS011;60095;50.180;9.032;2023-06-10T02:49:34;4.85;;;4.45;;
72194;SDS011;60095;50.180;9.032;2023-06-10T02:52:01;6.70;;;4.68;;
72194;SDS011;60095;50.180;9.032;2023-06-10T02:54:28;5.57;;;4.57;;
72194;SDS011;60095;50.180;9.032;2023-06-10T02:56:55;5.95;;;4.78;;
72194;SDS011;60095;50.180;9.032;2023-06-10T02:59:21;12.25;;;5.35;;
72194;SDS011;60095;50.180;9.032;2023-06-10T03:01:48;5.80;;;4.47;;
72194;SDS011;60095;50.180;9.032;2023-06-10T03:04:14;3.80;;;3.45;;
72194;SDS011;60095;50.180;9.032;2023-06-10T03:06:42;5.65;;;5.25;;
72194;SDS011;60095;50.180;9.032;2023-06-10T03:09:10;7.80;;;4.75;;
72194;SDS011;60095;50.180;9.032;2023-06-10T03:11:36;4.82;;;4.43;;
72194;SDS011;60095;50.180;9.032;2023-06-10T03:14:03;6.93;;;6.15;;
72194;SDS011;60095;50.180;9.032;2023-06-10T03:16:30;5.95;;;5.45;;
72194;SDS011;60095;50.180;9.032;2023-06-10T03:18:56;6.50;;;5.60;;
72194;SDS011;60095;50.180;9.032;2023-06-10T03:21:23;5.55;;;5.15;;
72194;SDS011;60095;50.180;9.032;2023-06-10T03:23:51;14.02;;;6.53;;
72194;SDS011;60095;50.180;9.032;2023-06-10T03:26:17;9.40;;;7.22;;
72194;SDS011;60095;50.180;9.032;2023-06-10T03:28:46;5.88;;;5.38;;
72194;SDS011;60095;50.180;9.032;2023-06-10T03:31:13;6.47;;;5.85;;
72194;SDS011;60095;50.180;9.032;2023-06-10T03:33:41;7.10;;;6.50;;
72194;SDS011;60095;50.180;9.032;2023-06-10T03:36:08;6.50;;;6.00;;
72194;SDS011;60095;50.180;9.032;2023-06-10T03:38:34;6.43;;;5.57;;
72194;SDS011;60095;50.180;9.032;2023-06-10T03:41:03;6.60;;;5.18;;
72194;SDS011;60095;50.180;9.032;2023-06-10T03:43:29;6.35;;;5.72;;
72194;SDS011;60095;50.180;9.032;2023-06-10T03:45:57;8.25;;;5.45;;
72194;SDS011;60095;50.180;9.032;2023-06-10T03:48:23;5.28;;;4.80;;
72194;SDS011;60095;50.180;9.032;2023-06-10T03:50:50;4.80;;;4.38;;
72194;SDS011;60095;50.180;9.032;2023-06-10T03:53:17;5.70;;;5.30;;
72194;SDS011;60095;50.180;9.032;2023-06-10T03:55:43;7.32;;;5.10;;
72194;SDS011;60095;50.180;9.032;2023-06-10T03:58:12;5.65;;;5.13;;
72194;SDS011;60095;50.180;9.032;2023-06-10T04:00:40;6.65;;;5.13;;
72194;SDS011;60095;50.180;9.032;2023-06-10T04:03:07;5.72;;;5.32;;
72194;SDS011;60095;50.180;9.032;2023-06-10T04:05:39;7.05;;;5.28;;
72194;SDS011;60095;50.180;9.032;2023-06-10T04:08:06;6.65;;;5.43;;
72194;SDS011;60095;50.180;9.032;2023-06-10T04:10:32;5.85;;;5.22;;
72194;SDS011;60095;50.180;9.032;2023-06-10T04:12:59;6.63;;;5.32;;
72194;SDS011;60095;50.180;9.032;2023-06-10T04:15:27;7.38;;;6.78;;
72194;SDS011;60095;50.180;9.032;2023-06-10T04:17:53;6.40;;;5.78;;
72194;SDS011;60095;50.180;9.032;2023-06-10T04:20:20;5.78;;;5.38;;
72194;SDS011;60095;50.180;9.032;2023-06-10T04:22:47;7.38;;;5.53;;
72194;SDS011;60095;50.180;9.032;2023-06-10T04:25:13;6.50;;;5.05;;
72194;SDS011;60095;50.180;9.032;2023-06-10T04:27:41;6.95;;;6.38;;
72194;SDS011;60095;50.180;9.032;2023-06-10T04:30:08;5.97;;;5.47;;
72194;SDS011;60095;50.180;9.032;2023-06-10T04:32:36;5.35;;;4.95;;
72194;SDS011;60095;50.180;9.032;2023-06-10T04:35:02;5.95;;;5.45;;
72194;SDS011;60095;50.180;9.032;2023-06-10T04:37:29;10.07;;;5.15;;
72194;SDS011;60095;50.180;9.032;2023-06-10T04:39:56;4.88;;;4.50;;
72194;SDS011;60095;50.180;9.032;2023-06-10T04:42:22;5.47;;;4.90;;
72194;SDS011;60095;50.180;9.032;2023-06-10T04:44:49;4.88;;;4.47;;
72194;SDS011;60095;50.180;9.032;2023-06-10T04:47:15;6.43;;;5.53;;
72194;SDS011;60095;50.180;9.032;2023-06-10T04:49:44;6.45;;;5.53;;
72194;SDS011;60095;50.180;9.032;2023-06-10T04:52:10;8.05;;;6.80;;
72194;SDS011;60095;50.180;9.032;2023-06-10T04:54:39;4.22;;;3.92;;
72194;SDS011;60095;50.180;9.032;2023-06-10T04:57:06;5.70;;;5.22;;
72194;SDS011;60095;50.180;9.032;2023-06-10T04:59:33;5.70;;;5.05;;
72194;SDS011;60095;50.180;9.032;2023-06-10T05:02:02;7.80;;;5.07;;
72194;SDS011;60095;50.180;9.032;2023-06-10T05:04:29;5.40;;;4.93;;
72194;SDS011;60095;50.180;9.032;2023-06-10T05:06:56;5.78;;;5.28;;
72194;SDS011;60095;50.180;9.032;2023-06-10T05:09:23;6.22;;;5.63;;
72194;SDS011;60095;50.180;9.032;2023-06-10T05:11:50;5.20;;;4.80;;
72194;SDS011;60095;50.180;9.032;2023-06-10T05:14:18;5.75;;;5.22;;
72194;SDS011;60095;50.180;9.032;2023-06-10T05:16:45;5.63;;;4.72;;
72194;SDS011;60095;50.180;9.032;2023-06-10T05:19:12;5.45;;;4.95;;
72194;SDS011;60095;50.180;9.032;2023-06-10T05:21:38;6.45;;;5.70;;
72194;SDS011;60095;50.180;9.032;2023-06-10T05:24:07;5.78;;;5.22;;
72194;SDS011;60095;50.180;9.032;2023-06-10T05:26:34;5.07;;;4.68;;
72194;SDS011;60095;50.180;9.032;2023-06-10T05:29:02;4.45;;;4.05;;
72194;SDS011;60095;50.180;9.032;2023-06-10T05:31:29;6.63;;;5.35;;
72194;SDS011;60095;50.180;9.032;2023-06-10T05:33:55;4.03;;;3.47;;
72194;SDS011;60095;50.180;9.032;2023-06-10T05:36:22;3.45;;;3.13;;
72194;SDS011;60095;50.180;9.032;2023-06-10T05:38:50;4.60;;;4.20;;
72194;SDS011;60095;50.180;9.032;2023-06-10T05:41:18;5.68;;;5.00;;
72194;SDS011;60095;50.180;9.032;2023-06-10T05:43:45;4.68;;;4.28;;
72194;SDS011;60095;50.180;9.032;2023-06-10T05:46:12;5.50;;;4.05;;
72194;SDS011;60095;50.180;9.032;2023-06-10T05:48:39;5.72;;;4.05;;
72194;SDS011;60095;50.180;9.032;2023-06-10T05:51:05;5.40;;;4.25;;
72194;SDS011;60095;50.180;9.032;2023-06-10T05:53:32;3.17;;;2.63;;
72194;SDS011;60095;50.180;9.032;2023-06-10T05:55:58;4.10;;;3.70;;
72194;SDS011;60095;50.180;9.032;2023-06-10T05:58:26;3.08;;;2.78;;
72194;SDS011;60095;50.180;9.032;2023-06-10T06:00:52;5.57;;;3.65;;
72194;SDS011;60095;50.180;9.032;2023-06-10T06:03:19;4.43;;;4.05;;
72194;SDS011;60095;50.180;9.032;2023-06-10T06:05:45;4.30;;;2.83;;
72194;SDS011;60095;50.180;9.032;2023-06-10T06:08:12;12.27;;;3.40;;
72194;SDS011;60095;50.180;9.032;2023-06-10T06:10:42;3.80;;;3.40;;
72194;SDS011;60095;50.180;9.032;2023-06-10T06:13:08;4.22;;;3.83;;
72194;SDS011;60095;50.180;9.032;2023-06-10T06:15:36;2.42;;;2.22;;
72194;SDS011;60095;50.180;9.032;2023-06-10T06:18:03;3.63;;;2.78;;
72194;SDS011;60095;50.180;9.032;2023-06-10T06:20:29;4.13;;;3.30;;
72194;SDS011;60095;50.180;9.032;2023-06-10T06:22:56;3.47;;;3.17;;
72194;SDS011;60095;50.180;9.032;2023-06-10T06:25:22;5.35;;;3.78;;
72194;SDS011;60095;50.180;9.032;2023-06-10T06:27:49;4.15;;;3.50;;
72194;SDS011;60095;50.180;9.032;2023-06-10T06:30:15;3.30;;;3.00;;
72194;SDS011;60095;50.180;9.032;2023-06-10T06:32:43;3.88;;;3.53;;
72194;SDS011;60095;50.180;9.032;2023-06-10T06:35:10;8.00;;;3.05;;
72194;SDS011;60095;50.180;9.032;2023-06-10T06:37:37;6.63;;;3.75;;
72194;SDS011;60095;50.180;9.032;2023-06-10T06:40:03;4.07;;;3.28;;
72194;SDS011;60095;50.180;9.032;2023-06-10T06:42:30;3.90;;;2.95;;
72194;SDS011;60095;50.180;9.032;2023-06-10T06:44:57;3.60;;;3.13;;
72194;SDS011;60095;50.180;9.032;2023-06-10T06:47:24;1.95;;;1.73;;
72194;SDS011;60095;50.180;9.032;2023-06-10T06:49:53;4.78;;;3.78;;
72194;SDS011;60095;50.180;9.032;2023-06-10T06:52:19;4.90;;;3.28;;
72194;SDS011;60095;50.180;9.032;2023-06-10T06:54:47;3.00;;;2.72;;
72194;SDS011;60095;50.180;9.032;2023-06-10T06:57:14;5.30;;;3.55;;
72194;SDS011;60095;50.180;9.032;2023-06-10T06:59:41;4.38;;;3.53;;
72194;SDS011;60095;50.180;9.032;2023-06-10T07:02:07;6.15;;;2.53;;
72194;SDS011;60095;50.180;9.032;2023-06-10T07:04:33;2.47;;;2.28;;
72194;SDS011;60095;50.180;9.032;2023-06-10T07:07:01;2.90;;;2.65;;
72194;SDS011;60095;50.180;9.032;2023-06-10T07:09:28;4.05;;;2.55;;
72194;SDS011;60095;50.180;9.032;2023-06-10T07:11:54;3.45;;;2.92;;
72194;SDS011;60095;50.180;9.032;2023-06-10T07:14:21;2.53;;;2.33;;
72194;SDS011;60095;50.180;9.032;2023-06-10T07:16:47;6.28;;;3.80;;
72194;SDS011;60095;50.180;9.032;2023-06-10T07:19:14;4.43;;;2.33;;
72194;SDS011;60095;50.180;9.032;2023-06-10T07:21:41;3.53;;;2.83;;
72194;SDS011;60095;50.180;9.032;2023-06-10T07:24:09;2.25;;;2.05;;
72194;SDS011;60095;50.180;9.032;2023-06-10T07:26:36;1.70;;;1.60;;
72194;SDS011;60095;50.180;9.032;2023-06-10T07:29:02;3.38;;;3.08;;
72194;SDS011;60095;50.180;9.032;2023-06-10T07:31:29;3.25;;;1.98;;
72194;SDS011;60095;50.180;9.032;2023-06-10T07:33:57;3.25;;;2.95;;
72194;SDS011;60095;50.180;9.032;2023-06-10T07:36:24;2.53;;;2.33;;
72194;SDS011;60095;50.180;9.032;2023-06-10T07:38:52;2.38;;;2.15;;
72194;SDS011;60095;50.180;9.032;2023-06-10T07:41:20;3.85;;;3.47;;
72194;SDS011;60095;50.180;9.032;2023-06-10T07:43:46;3.30;;;2.45;;
72194;SDS011;60095;50.180;9.032;2023-06-10T07:46:13;3.63;;;3.22;;
72194;SDS011;60095;50.180;9.032;2023-06-10T07:48:39;2.92;;;2.70;;
72194;SDS011;60095;50.180;9.032;2023-06-10T07:51:06;21.95;;;2.55;;
72194;SDS011;60095;50.180;9.032;2023-06-10T07:53:32;2.97;;;2.70;;
72194;SDS011;60095;50.180;9.032;2023-06-10T07:55:59;3.70;;;2.95;;
72194;SDS011;60095;50.180;9.032;2023-06-10T07:58:27;2.85;;;2.45;;
72194;SDS011;60095;50.180;9.032;2023-06-10T08:00:54;2.30;;;1.75;;
72194;SDS011;60095;50.180;9.032;2023-06-10T08:03:20;2.95;;;2.67;;
72194;SDS011;60095;50.180;9.032;2023-06-10T08:05:47;2.60;;;2.40;;
72194;SDS011;60095;50.180;9.032;2023-06-10T08:08:13;3.08;;;2.83;;
72194;SDS011;60095;50.180;9.032;2023-06-10T08:10:40;5.70;;;3.33;;
72194;SDS011;60095;50.180;9.032;2023-06-10T08:13:07;2.47;;;1.83;;
72194;SDS011;60095;50.180;9.032;2023-06-10T08:15:35;3.38;;;2.80;;
72194;SDS011;60095;50.180;9.032;2023-06-10T08:18:02;3.63;;;3.08;;
72194;SDS011;60095;50.180;9.032;2023-06-10T08:20:28;2.45;;;2.25;;
72194;SDS011;60095;50.180;9.032;2023-06-10T08:22:55;2.15;;;1.90;;
72194;SDS011;60095;50.180;9.032;2023-06-10T08:25:21;1.98;;;1.88;;
72194;SDS011;60095;50.180;9.032;2023-06-10T08:27:48;3.28;;;2.45;;
72194;SDS011;60095;50.180;9.032;2023-06-10T08:30:15;2.15;;;1.95;;
72194;SDS011;60095;50.180;9.032;2023-06-10T08:32:44;2.95;;;2.70;;
72194;SDS011;60095;50.180;9.032;2023-06-10T08:35:10;5.95;;;3.03;;
72194;SDS011;60095;50.180;9.032;2023-06-10T08:37:37;2.50;;;2.30;;
72194;SDS011;60095;50.180;9.032;2023-06-10T08:40:04;6.40;;;3.05;;
72194;SDS011;60095;50.180;9.032;2023-06-10T08:42:32;2.05;;;1.95;;
72194;SDS011;60095;50.180;9.032;2023-06-10T08:45:00;2.90;;;2.15;;
72194;SDS011;60095;50.180;9.032;2023-06-10T08:47:29;4.40;;;2.60;;
72194;SDS011;60095;50.180;9.032;2023-06-10T08:49:57;5.45;;;2.13;;
72194;SDS011;60095;50.180;9.032;2023-06-10T08:52:28;6.30;;;2.35;;
72194;SDS011;60095;50.180;9.032;2023-06-10T08:54:56;3.85;;;1.75;;
72194;SDS011;60095;50.180;9.032;2023-06-10T08:57:23;2.30;;;1.73;;
72194;SDS011;60095;50.180;9.032;2023-06-10T08:59:51;4.90;;;3.47;;
72194;SDS011;60095;50.180;9.032;2023-06-10T09:02:18;2.90;;;2.42;;
72194;SDS011;60095;50.180;9.032;2023-06-10T09:04:46;2.75;;;1.98;;
72194;SDS011;60095;50.180;9.032;2023-06-10T09:07:14;5.05;;;2.33;;
72194;SDS011;60095;50.180;9.032;2023-06-10T09:09:41;4.57;;;2.40;;
72194;SDS011;60095;50.180;9.032;2023-06-10T09:12:08;2.42;;;2.22;;
72194;SDS011;60095;50.180;9.032;2023-06-10T09:14:35;2.10;;;1.85;;
72194;SDS011;60095;50.180;9.032;2023-06-10T09:17:02;3.17;;;2.88;;
72194;SDS011;60095;50.180;9.032;2023-06-10T09:19:28;8.00;;;1.83;;
72194;SDS011;60095;50.180;9.032;2023-06-10T09:21:55;2.72;;;2.25;;
72194;SDS011;60095;50.180;9.032;2023-06-10T09:24:23;3.13;;;1.98;;
72194;SDS011;60095;50.180;9.032;2023-06-10T09:26:50;1.95;;;1.65;;
72194;SDS011;60095;50.180;9.032;2023-06-10T09:29:28;1.63;;;1.52;;
72194;SDS011;60095;50.180;9.032;2023-06-10T09:31:54;5.80;;;1.83;;
72194;SDS011;60095;50.180;9.032;2023-06-10T09:34:24;4.97;;;2.45;;
72194;SDS011;60095;50.180;9.032;2023-06-10T09:36:50;2.67;;;2.25;;
72194;SDS011;60095;50.180;9.032;2023-06-10T09:39:18;2.35;;;1.88;;
72194;SDS011;60095;50.180;9.032;2023-06-10T09:41:46;2.72;;;2.22;;
72194;SDS011;60095;50.180;9.032;2023-06-10T09:44:13;2.45;;;1.77;;
72194;SDS011;60095;50.180;9.032;2023-06-10T09:46:40;3.05;;;2.75;;
72194;SDS011;60095;50.180;9.032;2023-06-10T09:49:07;1.08;;;0.95;;
72194;SDS011;60095;50.180;9.032;2023-06-10T09:51:33;1.48;;;1.02;;
72194;SDS011;60095;50.180;9.032;2023-06-10T09:54:02;1.63;;;1.35;;
72194;SDS011;60095;50.180;9.032;2023-06-10T09:56:37;1.13;;;0.98;;
72194;SDS011;60095;50.180;9.032;2023-06-10T09:59:09;2.05;;;1.67;;
72194;SDS011;60095;50.180;9.032;2023-06-10T10:01:35;4.10;;;2.45;;
72194;SDS011;60095;50.180;9.032;2023-06-10T10:04:02;2.60;;;2.20;;
72194;SDS011;60095;50.180;9.032;2023-06-10T10:06:30;1.90;;;1.63;;
72194;SDS011;60095;50.180;9.032;2023-06-10T10:08:56;2.35;;;1.75;;
72194;SDS011;60095;50.180;9.032;2023-06-10T10:11:22;5.40;;;1.73;;
72194;SDS011;60095;50.180;9.032;2023-06-10T10:13:51;2.60;;;1.38;;
72194;SDS011;60095;50.180;9.032;2023-06-10T10:16:20;2.50;;;2.20;;
72194;SDS011;60095;50.180;9.032;2023-06-10T10:18:49;2.35;;;1.40;;
72194;SDS011;60095;50.180;9.032;2023-06-10T10:21:18;3.15;;;1.92;;
72194;SDS011;60095;50.180;9.032;2023-06-10T10:23:48;1.50;;;1.40;;
72194;SDS011;60095;50.180;9.032;2023-06-10T10:26:19;1.33;;;0.95;;
72194;SDS011;60095;50.180;9.032;2023-06-10T10:28:48;2.63;;;1.27;;
72194;SDS011;60095;50.180;9.032;2023-06-10T10:31:18;4.13;;;2.53;;
72194;SDS011;60095;50.180;9.032;2023-06-10T10:33:48;1.83;;;1.42;;
72194;SDS011;60095;50.180;9.032;2023-06-10T10:36:18;12.43;;;1.80;;
72194;SDS011;60095;50.180;9.032;2023-06-10T10:38:45;3.63;;;2.22;;
72194;SDS011;60095;50.180;9.032;2023-06-10T10:41:12;4.28;;;3.03;;
72194;SDS011;60095;50.180;9.032;2023-06-10T10:43:39;2.22;;;1.55;;
72194;SDS011;60095;50.180;9.032;2023-06-10T10:46:08;3.40;;;2.13;;
72194;SDS011;60095;50.180;9.032;2023-06-10T10:48:37;2.30;;;1.52;;
72194;SDS011;60095;50.180;9.032;2023-06-10T10:51:05;1.95;;;1.25;;
72194;SDS011;60095;50.180;9.032;2023-06-10T10:53:32;1.90;;;1.73;;
72194;SDS011;60095;50.180;9.032;2023-06-10T10:55:59;0.85;;;0.75;;
72194;SDS011;60095;50.180;9.032;2023-06-10T10:58:26;2.40;;;1.35;;
72194;SDS011;60095;50.180;9.032;2023-06-10T11:00:52;2.53;;;1.40;;
72194;SDS011;60095;50.180;9.032;2023-06-10T11:03:19;5.72;;;1.88;;
72194;SDS011;60095;50.180;9.032;2023-06-10T11:05:46;2.03;;;1.02;;
72194;SDS011;60095;50.180;9.032;2023-06-10T11:08:16;3.88;;;1.95;;
72194;SDS011;60095;50.180;9.032;2023-06-10T11:11:17;3.22;;;2.45;;
72194;SDS011;60095;50.180;9.032;2023-06-10T11:13:48;2.70;;;1.83;;
72194;SDS011;60095;50.180;9.032;2023-06-10T11:16:23;1.92;;;1.77;;
72194;SDS011;60095;50.180;9.032;2023-06-10T11:18:53;1.95;;;1.65;;
72194;SDS011;60095;50.180;9.032;2023-06-10T11:21:20;1.50;;;1.05;;
72194;SDS011;60095;50.180;9.032;2023-06-10T11:23:47;1.88;;;1.70;;
72194;SDS011;60095;50.180;9.032;2023-06-10T11:29:02;1.48;;;1.38;;
72194;SDS011;60095;50.180;9.032;2023-06-10T11:31:29;1.73;;;1.63;;
72194;SDS011;60095;50.180;9.032;2023-06-10T11:33:57;2.05;;;1.85;;
72194;SDS011;60095;50.180;9.032;2023-06-10T11:36:24;1.92;;;1.83;;
72194;SDS011;60095;50.180;9.032;2023-06-10T11:38:53;1.17;;;1.00;;
72194;SDS011;60095;50.180;9.032;2023-06-10T11:41:21;1.17;;;1.08;;
72194;SDS011;60095;50.180;9.032;2023-06-10T11:43:48;1.40;;;1.10;;
72194;SDS011;60095;50.180;9.032;2023-06-10T11:46:16;2.15;;;2.03;;
72194;SDS011;60095;50.180;9.032;2023-06-10T11:48:48;1.05;;;1.00;;
72194;SDS011;60095;50.180;9.032;2023-06-10T11:51:14;1.25;;;0.80;;
72194;SDS011;60095;50.180;9.032;2023-06-10T11:53:43;1.70;;;1.50;;
72194;SDS011;60095;50.180;9.032;2023-06-10T11:56:09;1.63;;;1.52;;
72194;SDS011;60095;50.180;9.032;2023-06-10T11:58:36;3.33;;;3.03;;
72194;SDS011;60095;50.180;9.032;2023-06-10T12:01:02;3.03;;;2.08;;
72194;SDS011;60095;50.180;9.032;2023-06-10T12:03:36;1.85;;;1.45;;
72194;SDS011;60095;50.180;9.032;2023-06-10T12:06:04;1.23;;;0.90;;
72194;SDS011;60095;50.180;9.032;2023-06-10T12:08:31;2.13;;;1.65;;
72194;SDS011;60095;50.180;9.032;2023-06-10T12:10:57;4.03;;;1.90;;
72194;SDS011;60095;50.180;9.032;2023-06-10T12:13:26;2.28;;;2.08;;
72194;SDS011;60095;50.180;9.032;2023-06-10T12:15:52;1.67;;;1.58;;
72194;SDS011;60095;50.180;9.032;2023-06-10T12:18:20;6.97;;;2.20;;
72194;SDS011;60095;50.180;9.032;2023-06-10T12:20:48;3.55;;;1.80;;
72194;SDS011;60095;50.180;9.032;2023-06-10T12:23:15;4.50;;;1.65;;
72194;SDS011;60095;50.180;9.032;2023-06-10T12:25:49;1.65;;;1.02;;
72194;SDS011;60095;50.180;9.032;2023-06-10T12:28:16;1.75;;;1.58;;
72194;SDS011;60095;50.180;9.032;2023-06-10T12:30:44;1.63;;;1.52;;
72194;SDS011;60095;50.180;9.032;2023-06-10T12:33:15;1.25;;;1.05;;
72194;SDS011;60095;50.180;9.032;2023-06-10T12:35:46;3.20;;;2.25;;
72194;SDS011;60095;50.180;9.032;2023-06-10T12:38:14;2.00;;;1.15;;
72194;SDS011;60095;50.180;9.032;2023-06-10T12:40:41;3.45;;;1.88;;
72194;SDS011;60095;50.180;9.032;2023-06-10T12:43:08;2.22;;;1.77;;
72194;SDS011;60095;50.180;9.032;2023-06-10T12:45:36;1.80;;;1.40;;
72194;SDS011;60095;50.180;9.032;2023-06-10T12:48:05;2.10;;;1.65;;
72194;SDS011;60095;50.180;9.032;2023-06-10T12:50:34;3.15;;;1.13;;
72194;SDS011;60095;50.180;9.032;2023-06-10T12:53:00;3.65;;;1.35;;
72194;SDS011;60095;50.180;9.032;2023-06-10T12:55:28;1.00;;;0.93;;
72194;SDS011;60095;50.180;9.032;2023-06-10T12:57:54;1.92;;;1.65;;
72194;SDS011;60095;50.180;9.032;2023-06-10T13:00:22;10.00;;;0.82;;
72194;SDS011;60095;50.180;9.032;2023-06-10T13:02:51;1.67;;;1.20;;
72194;SDS011;60095;50.180;9.032;2023-06-10T13:05:17;1.52;;;1.13;;
72194;SDS011;60095;50.180;9.032;2023-06-10T13:07:45;1.25;;;1.15;;
72194;SDS011;60095;50.180;9.032;2023-06-10T13:10:12;2.20;;;1.00;;
72194;SDS011;60095;50.180;9.032;2023-06-10T13:12:40;1.20;;;1.05;;
72194;SDS011;60095;50.180;9.032;2023-06-10T13:15:06;2.35;;;1.30;;
72194;SDS011;60095;50.180;9.032;2023-06-10T13:17:33;0.85;;;0.63;;
72194;SDS011;60095;50.180;9.032;2023-06-10T13:20:01;1.33;;;0.70;;
72194;SDS011;60095;50.180;9.032;2023-06-10T13:22:28;1.05;;;0.93;;
72194;SDS011;60095;50.180;9.032;2023-06-10T13:24:55;1.05;;;0.90;;
72194;SDS011;60095;50.180;9.032;2023-06-10T13:27:22;0.57;;;0.57;;
72194;SDS011;60095;50.180;9.032;2023-06-10T13:29:50;2.15;;;0.95;;
72194;SDS011;60095;50.180;9.032;2023-06-10T13:32:17;5.60;;;1.90;;
72194;SDS011;60095;50.180;9.032;2023-06-10T13:34:43;1.35;;;1.25;;
72194;SDS011;60095;50.180;9.032;2023-06-10T13:37:10;1.85;;;1.38;;
72194;SDS011;60095;50.180;9.032;2023-06-10T13:39:37;1.55;;;1.10;;
72194;SDS011;60095;50.180;9.032;2023-06-10T13:42:04;1.90;;;1.52;;
72194;SDS011;60095;50.180;9.032;2023-06-10T13:44:32;1.50;;;1.40;;
72194;SDS011;60095;50.180;9.032;2023-06-10T13:47:02;0.60;;;0.47;;
72194;SDS011;60095;50.180;9.032;2023-06-10T13:49:29;1.25;;;0.98;;
72194;SDS011;60095;50.180;9.032;2023-06-10T13:51:56;1.38;;;1.05;;
72194;SDS011;60095;50.180;9.032;2023-06-10T13:54:22;8.45;;;2.13;;
72194;SDS011;60095;50.180;9.032;2023-06-10T13:56:49;1.55;;;1.25;;
72194;SDS011;60095;50.180;9.032;2023-06-10T13:59:16;1.88;;;1.35;;
72194;SDS011;60095;50.180;9.032;2023-06-10T14:01:42;1.08;;;0.70;;
72194;SDS011;60095;50.180;9.032;2023-06-10T14:04:10;0.70;;;0.55;;
72194;SDS011;60095;50.180;9.032;2023-06-10T14:06:36;1.65;;;1.23;;
72194;SDS011;60095;50.180;9.032;2023-06-10T14:09:03;1.27;;;0.85;;
72194;SDS011;60095;50.180;9.032;2023-06-10T14:11:30;0.77;;;0.50;;
72194;SDS011;60095;50.180;9.032;2023-06-10T14:13:56;3.45;;;1.83;;
72194;SDS011;60095;50.180;9.032;2023-06-10T14:16:23;1.83;;;0.85;;
72194;SDS011;60095;50.180;9.032;2023-06-10T14:18:50;1.45;;;0.98;;
72194;SDS011;60095;50.180;9.032;2023-06-10T14:21:18;1.13;;;0.60;;
72194;SDS011;60095;50.180;9.032;2023-06-10T14:23:45;1.60;;;1.17;;
72194;SDS011;60095;50.180;9.032;2023-06-10T14:26:14;2.25;;;1.27;;
72194;SDS011;60095;50.180;9.032;2023-06-10T14:28:40;1.75;;;1.10;;
72194;SDS011;60095;50.180;9.032;2023-06-10T14:31:07;1.25;;;0.63;;
72194;SDS011;60095;50.180;9.032;2023-06-10T14:33:33;1.90;;;0.90;;
72194;SDS011;60095;50.180;9.032;2023-06-10T14:36:00;2.17;;;1.15;;
72194;SDS011;60095;50.180;9.032;2023-06-10T14:38:28;1.77;;;1.58;;
72194;SDS011;60095;50.180;9.032;2023-06-10T14:40:55;1.60;;;1.48;;
72194;SDS011;60095;50.180;9.032;2023-06-10T14:43:21;1.23;;;0.98;;
72194;SDS011;60095;50.180;9.032;2023-06-10T14:45:48;2.75;;;1.83;;
72194;SDS011;60095;50.180;9.032;2023-06-10T14:48:16;1.95;;;1.30;;
72194;SDS011;60095;50.180;9.032;2023-06-10T14:50:42;1.65;;;1.35;;
72194;SDS011;60095;50.180;9.032;2023-06-10T14:53:11;3.50;;;1.65;;